Time;durP1;ratioP1;P1;durP2;ratioP2;P2;SDS_P1;SDS_P2;PMS_P1;PMS_P2;Temp;Humidity;BMP_temperature;BMP_pressure;BME280_temperature;BME280_humidity;BME280_pressure;Samples;Min_cycle;Max_cycle;Signal;HPM_P1;HPM_P2
2021/09/04 00:00:12;;;;;;;15.10;10.63;;;;;;;;;;5034855;28;20506;-67
2021/09/04 00:02:38;;;;;;;17.90;11.80;;;;;;;;;;5036044;28;21236;-69
2021/09/04 00:05:04;;;;;;;17.50;11.63;;;;;;;;;;5054253;28;20421;-67
2021/09/04 00:07:32;;;;;;;17.90;12.07;;;;;;;;;;5053409;28;20402;-68
2021/09/04 00:09:58;;;;;;;19.20;12.67;;;;;;;;;;5054375;28;20398;-67
2021/09/04 00:12:25;;;;;;;18.63;10.97;;;;;;;;;;5053840;28;20513;-67
2021/09/04 00:14:51;;;;;;;16.67;11.13;;;;;;;;;;5053275;28;20424;-67
2021/09/04 00:17:17;;;;;;;17.60;11.80;;;;;;;;;;5054190;28;20460;-66
2021/09/04 00:19:43;;;;;;;12.87;11.17;;;;;;;;;;5052995;28;20430;-67
2021/09/04 00:22:09;;;;;;;17.47;11.17;;;;;;;;;;5052862;28;20962;-66
2021/09/04 00:24:35;;;;;;;14.27;10.57;;;;;;;;;;5053135;28;20437;-67
2021/09/04 00:27:02;;;;;;;19.30;11.80;;;;;;;;;;5053938;28;20447;-66
2021/09/04 00:29:28;;;;;;;17.50;11.63;;;;;;;;;;5052780;28;20499;-66
2021/09/04 00:31:54;;;;;;;19.03;12.50;;;;;;;;;;5036013;28;20919;-66
2021/09/04 00:34:20;;;;;;;16.27;11.60;;;;;;;;;;5052322;28;20486;-66
2021/09/04 00:36:46;;;;;;;13.97;9.80;;;;;;;;;;5053808;28;20406;-67
2021/09/04 00:39:12;;;;;;;13.70;9.13;;;;;;;;;;5052779;28;20434;-67
2021/09/04 00:41:38;;;;;;;15.63;10.17;;;;;;;;;;5053585;28;20952;-66
2021/09/04 00:44:05;;;;;;;17.20;11.80;;;;;;;;;;5040740;28;20422;-67
2021/09/04 00:46:31;;;;;;;20.83;10.23;;;;;;;;;;5033766;28;20411;-66
2021/09/04 00:48:58;;;;;;;17.37;10.10;;;;;;;;;;5045027;28;20779;-66
2021/09/04 00:51:24;;;;;;;12.07;10.03;;;;;;;;;;5035609;28;20504;-67
2021/09/04 00:53:51;;;;;;;15.83;10.67;;;;;;;;;;5052446;28;20429;-66
2021/09/04 00:56:17;;;;;;;14.20;10.40;;;;;;;;;;5053442;28;20887;-66
2021/09/04 00:58:43;;;;;;;18.83;12.00;;;;;;;;;;5052624;28;20425;-67
2021/09/04 01:01:09;;;;;;;13.00;10.07;;;;;;;;;;5053370;28;20398;-67
2021/09/04 01:03:35;;;;;;;12.33;9.20;;;;;;;;;;5045062;28;20431;-67
2021/09/04 01:06:01;;;;;;;15.97;11.30;;;;;;;;;;5033379;28;20460;-67
2021/09/04 01:08:28;;;;;;;20.20;11.30;;;;;;;;;;5042510;28;20453;-67
2021/09/04 01:10:54;;;;;;;12.60;9.70;;;;;;;;;;5052110;28;20778;-67
2021/09/04 01:13:20;;;;;;;12.50;9.60;;;;;;;;;;5052102;28;20815;-67
2021/09/04 01:15:47;;;;;;;13.17;9.37;;;;;;;;;;5053484;28;20792;-66
2021/09/04 01:18:13;;;;;;;13.33;9.43;;;;;;;;;;5052361;28;20441;-67
2021/09/04 01:20:39;;;;;;;14.13;9.80;;;;;;;;;;5053133;28;20894;-66
2021/09/04 01:23:05;;;;;;;12.03;8.83;;;;;;;;;;5052266;28;20450;-67
2021/09/04 01:25:32;;;;;;;15.40;10.30;;;;;;;;;;5053167;28;20430;-66
2021/09/04 01:27:59;;;;;;;12.10;8.83;;;;;;;;;;5046976;28;20462;-66
2021/09/04 01:30:26;;;;;;;12.87;9.43;;;;;;;;;;5033310;28;20431;-66
2021/09/04 01:32:52;;;;;;;14.30;9.40;;;;;;;;;;5037344;28;20453;-67
2021/09/04 01:35:23;;;;;;;11.83;8.87;;;;;;;;;;5052893;28;20408;-67
2021/09/04 01:37:49;;;;;;;14.87;9.10;;;;;;;;;;5051972;28;20918;-66
2021/09/04 01:40:15;;;;;;;12.33;8.20;;;;;;;;;;5052097;28;20771;-67
2021/09/04 01:42:42;;;;;;;14.07;9.47;;;;;;;;;;5049548;28;20540;-67
2021/09/04 01:45:08;;;;;;;13.77;9.20;;;;;;;;;;5032969;28;20440;-66
2021/09/04 01:47:35;;;;;;;12.60;9.33;;;;;;;;;;5037300;28;20395;-67
2021/09/04 01:50:01;;;;;;;12.20;9.50;;;;;;;;;;5055714;28;20425;-66
2021/09/04 01:52:27;;;;;;;10.90;8.23;;;;;;;;;;5055544;28;20817;-67
2021/09/04 01:54:54;;;;;;;12.57;9.20;;;;;;;;;;5057116;28;20401;-67
2021/09/04 01:57:20;;;;;;;11.87;9.30;;;;;;;;;;5056774;28;20442;-67
2021/09/04 01:59:46;;;;;;;13.30;9.10;;;;;;;;;;5036790;28;20786;-66
2021/09/04 02:02:13;;;;;;;13.20;8.87;;;;;;;;;;5041750;28;20446;-66
2021/09/04 02:04:39;;;;;;;10.60;8.60;;;;;;;;;;5038102;28;20828;-66
2021/09/04 02:07:05;;;;;;;12.90;8.90;;;;;;;;;;5036647;28;20413;-66
2021/09/04 02:09:32;;;;;;;10.80;8.23;;;;;;;;;;5047977;28;20445;-66
2021/09/04 02:11:58;;;;;;;13.63;9.80;;;;;;;;;;5056504;28;20421;-66
2021/09/04 02:14:24;;;;;;;14.23;10.17;;;;;;;;;;5055844;28;20425;-66
2021/09/04 02:16:50;;;;;;;12.80;10.20;;;;;;;;;;5056709;28;20409;-66
2021/09/04 02:19:16;;;;;;;11.83;9.40;;;;;;;;;;5055369;28;20426;-67
2021/09/04 02:21:42;;;;;;;14.23;9.17;;;;;;;;;;5056259;28;20504;-66
2021/09/04 02:24:08;;;;;;;11.17;8.40;;;;;;;;;;5055215;28;20433;-66
2021/09/04 02:26:34;;;;;;;11.60;9.87;;;;;;;;;;5056444;28;20433;-66
2021/09/04 02:29:01;;;;;;;11.30;8.47;;;;;;;;;;5044118;28;20810;-67
2021/09/04 02:31:27;;;;;;;12.80;8.87;;;;;;;;;;5036206;28;20426;-66
2021/09/04 02:33:53;;;;;;;14.20;8.70;;;;;;;;;;5046299;28;20460;-66
2021/09/04 02:36:19;;;;;;;15.80;8.90;;;;;;;;;;5055034;28;20540;-66
2021/09/04 02:38:46;;;;;;;11.50;8.20;;;;;;;;;;5045916;28;20430;-66
2021/09/04 02:41:12;;;;;;;12.10;9.37;;;;;;;;;;5044260;28;20862;-67
2021/09/04 02:43:38;;;;;;;11.53;9.20;;;;;;;;;;5055018;28;20945;-66
2021/09/04 02:46:04;;;;;;;12.23;9.60;;;;;;;;;;5050306;28;20515;-67
2021/09/04 02:48:30;;;;;;;16.27;9.40;;;;;;;;;;5052852;28;20475;-66
2021/09/04 02:50:56;;;;;;;11.60;8.67;;;;;;;;;;5055835;28;20401;-67
2021/09/04 02:53:22;;;;;;;10.50;8.40;;;;;;;;;;5054789;28;20476;-66
2021/09/04 02:55:48;;;;;;;17.30;8.87;;;;;;;;;;5055744;28;20510;-66
2021/09/04 02:58:14;;;;;;;14.73;9.10;;;;;;;;;;5054054;28;20511;-67
2021/09/04 03:00:40;;;;;;;10.07;8.10;;;;;;;;;;5055855;28;20476;-66
2021/09/04 03:03:06;;;;;;;11.30;8.37;;;;;;;;;;5054657;28;21034;-67
2021/09/04 03:05:32;;;;;;;13.73;8.00;;;;;;;;;;5055579;28;20478;-67
2021/09/04 03:07:58;;;;;;;10.47;7.87;;;;;;;;;;5053182;28;20541;-67
2021/09/04 03:10:24;;;;;;;9.30;7.97;;;;;;;;;;5035554;28;20391;-67
2021/09/04 03:12:50;;;;;;;10.40;8.17;;;;;;;;;;5035325;28;20419;-67
2021/09/04 03:15:16;;;;;;;11.73;8.77;;;;;;;;;;5035444;28;20395;-68
2021/09/04 03:17:42;;;;;;;13.10;9.07;;;;;;;;;;5035540;28;20391;-67
2021/09/04 03:20:09;;;;;;;14.37;8.30;;;;;;;;;;5035333;28;20427;-66
2021/09/04 03:22:36;;;;;;;12.77;8.83;;;;;;;;;;5045137;28;20497;-67
2021/09/04 03:25:03;;;;;;;20.30;9.73;;;;;;;;;;5048133;28;20461;-67
2021/09/04 03:27:29;;;;;;;12.77;8.63;;;;;;;;;;5035504;28;20831;-67
2021/09/04 03:29:56;;;;;;;11.70;8.70;;;;;;;;;;5046924;28;20441;-67
2021/09/04 03:32:22;;;;;;;13.30;8.90;;;;;;;;;;5054903;28;20773;-66
2021/09/04 03:34:48;;;;;;;11.07;8.87;;;;;;;;;;5053944;28;20437;-66
2021/09/04 03:37:14;;;;;;;11.27;8.83;;;;;;;;;;5054862;28;20902;-66
2021/09/04 03:39:40;;;;;;;14.00;8.60;;;;;;;;;;5053967;28;20461;-66
2021/09/04 03:42:06;;;;;;;11.63;9.40;;;;;;;;;;5055103;28;20422;-66
2021/09/04 03:44:32;;;;;;;11.47;8.40;;;;;;;;;;5053886;28;20462;-66
2021/09/04 03:46:58;;;;;;;13.80;9.57;;;;;;;;;;5054835;28;20398;-66
2021/09/04 03:49:24;;;;;;;13.03;8.87;;;;;;;;;;5053527;28;20458;-67
2021/09/04 03:51:50;;;;;;;13.33;8.47;;;;;;;;;;5054579;28;20811;-66
2021/09/04 03:54:16;;;;;;;14.60;8.43;;;;;;;;;;5052089;28;20422;-66
2021/09/04 03:56:42;;;;;;;14.73;9.93;;;;;;;;;;5054526;28;20404;-67
2021/09/04 03:59:08;;;;;;;12.60;8.90;;;;;;;;;;5053465;28;20429;-66
2021/09/04 04:01:34;;;;;;;10.60;8.00;;;;;;;;;;5054687;28;20513;-67
2021/09/04 04:04:00;;;;;;;13.27;8.40;;;;;;;;;;5053187;28;20874;-67
2021/09/04 04:06:26;;;;;;;11.90;8.20;;;;;;;;;;5054461;28;20497;-67
2021/09/04 04:08:52;;;;;;;12.00;7.70;;;;;;;;;;5047385;28;20550;-67
2021/09/04 04:11:18;;;;;;;11.10;8.50;;;;;;;;;;5034284;28;20771;-67
2021/09/04 04:13:44;;;;;;;10.33;7.43;;;;;;;;;;5038013;28;20418;-67
2021/09/04 04:16:10;;;;;;;10.70;8.17;;;;;;;;;;5054298;28;20394;-67
2021/09/04 04:18:36;;;;;;;10.53;7.47;;;;;;;;;;5053113;28;20437;-67
2021/09/04 04:21:03;;;;;;;11.73;7.80;;;;;;;;;;5052889;28;20425;-67
2021/09/04 04:23:29;;;;;;;12.40;8.90;;;;;;;;;;5052221;28;20448;-67
2021/09/04 04:25:55;;;;;;;11.63;8.37;;;;;;;;;;5054302;28;20413;-67
2021/09/04 04:28:22;;;;;;;12.63;9.13;;;;;;;;;;5045955;28;20947;-67
2021/09/04 04:30:48;;;;;;;12.43;9.00;;;;;;;;;;5053646;28;20410;-66
2021/09/04 04:33:14;;;;;;;10.53;8.27;;;;;;;;;;5053926;28;20426;-67
2021/09/04 04:35:40;;;;;;;15.00;9.50;;;;;;;;;;5052981;28;20791;-66
2021/09/04 04:38:06;;;;;;;11.73;9.27;;;;;;;;;;5053912;28;20520;-66
2021/09/04 04:40:32;;;;;;;12.50;9.17;;;;;;;;;;5051726;28;20434;-67
2021/09/04 04:42:58;;;;;;;14.70;8.13;;;;;;;;;;5052684;28;20440;-66
2021/09/04 04:45:24;;;;;;;13.03;9.50;;;;;;;;;;5037177;28;20434;-66
2021/09/04 04:47:50;;;;;;;14.73;9.10;;;;;;;;;;5033753;28;20407;-66
2021/09/04 04:50:17;;;;;;;13.10;9.07;;;;;;;;;;5033845;28;20439;-66
2021/09/04 04:52:43;;;;;;;12.40;8.13;;;;;;;;;;5033583;28;20531;-66
2021/09/04 04:55:09;;;;;;;11.93;8.90;;;;;;;;;;5046717;28;20434;-66
2021/09/04 04:57:36;;;;;;;12.33;7.70;;;;;;;;;;5053615;28;20500;-66
2021/09/04 05:00:02;;;;;;;12.03;9.20;;;;;;;;;;5052344;28;20428;-66
2021/09/04 05:02:28;;;;;;;10.93;8.47;;;;;;;;;;5034862;28;21000;-67
2021/09/04 05:04:54;;;;;;;10.40;7.70;;;;;;;;;;5044288;28;20624;-66
2021/09/04 05:07:20;;;;;;;12.70;7.93;;;;;;;;;;5053405;28;20490;-67
2021/09/04 05:09:46;;;;;;;13.63;8.37;;;;;;;;;;5052378;28;20966;-66
2021/09/04 05:12:12;;;;;;;15.17;11.23;;;;;;;;;;5053308;28;20418;-66
2021/09/04 05:14:38;;;;;;;14.10;10.50;;;;;;;;;;5052369;28;20422;-66
2021/09/04 05:17:04;;;;;;;11.10;9.43;;;;;;;;;;5052460;28;20871;-67
2021/09/04 05:19:30;;;;;;;13.97;9.63;;;;;;;;;;5052021;28;20513;-66
2021/09/04 05:21:57;;;;;;;12.73;9.13;;;;;;;;;;5053423;28;20430;-66
2021/09/04 05:24:23;;;;;;;12.10;8.27;;;;;;;;;;5052129;28;20422;-66
2021/09/04 05:26:49;;;;;;;12.57;9.17;;;;;;;;;;5053171;28;20408;-66
2021/09/04 05:29:15;;;;;;;11.87;9.70;;;;;;;;;;5047865;28;20458;-67
2021/09/04 05:31:41;;;;;;;12.93;9.80;;;;;;;;;;5033194;28;20419;-67
2021/09/04 05:34:07;;;;;;;10.63;8.77;;;;;;;;;;5036224;28;20437;-66
2021/09/04 05:36:33;;;;;;;11.43;8.03;;;;;;;;;;5035157;28;20467;-67
2021/09/04 05:38:59;;;;;;;12.90;9.67;;;;;;;;;;5052060;28;20493;-67
2021/09/04 05:41:25;;;;;;;15.50;9.20;;;;;;;;;;5052911;28;20508;-67
2021/09/04 05:43:51;;;;;;;11.70;9.37;;;;;;;;;;5052029;28;20519;-67
2021/09/04 05:46:17;;;;;;;12.60;9.10;;;;;;;;;;5053087;28;20776;-66
2021/09/04 05:48:43;;;;;;;14.97;9.27;;;;;;;;;;5053093;28;20459;-68
2021/09/04 05:51:09;;;;;;;14.07;9.90;;;;;;;;;;5051056;28;20839;-67
2021/09/04 05:53:38;;;;;;;12.70;9.37;;;;;;;;;;5053487;28;20433;-67
2021/09/04 05:56:04;;;;;;;10.50;8.00;;;;;;;;;;5033648;28;20423;-67
2021/09/04 05:58:30;;;;;;;18.60;9.40;;;;;;;;;;5033159;28;20415;-66
2021/09/04 06:00:56;;;;;;;11.63;8.90;;;;;;;;;;5048540;28;20434;-66
2021/09/04 06:03:22;;;;;;;12.57;8.80;;;;;;;;;;5052772;28;20421;-66
2021/09/04 06:05:48;;;;;;;11.53;8.20;;;;;;;;;;5052143;28;20784;-66
2021/09/04 06:08:14;;;;;;;13.40;10.10;;;;;;;;;;5051536;28;20873;-67
2021/09/04 06:10:40;;;;;;;13.83;9.17;;;;;;;;;;5051888;28;20422;-66
2021/09/04 06:13:07;;;;;;;14.30;8.23;;;;;;;;;;5052721;28;20472;-67
2021/09/04 06:15:33;;;;;;;12.90;8.47;;;;;;;;;;5051894;28;20437;-66
2021/09/04 06:17:59;;;;;;;11.03;9.13;;;;;;;;;;5052683;28;20409;-67
2021/09/04 06:20:25;;;;;;;11.47;7.47;;;;;;;;;;5049005;28;20437;-67
2021/09/04 06:22:51;;;;;;;14.20;9.20;;;;;;;;;;5051561;28;20458;-66
2021/09/04 06:25:17;;;;;;;12.53;9.40;;;;;;;;;;5051987;28;20479;-66
2021/09/04 06:27:43;;;;;;;14.93;10.30;;;;;;;;;;5052957;28;20410;-67
2021/09/04 06:30:09;;;;;;;12.17;8.90;;;;;;;;;;5051663;28;20461;-67
2021/09/04 06:32:35;;;;;;;15.23;9.47;;;;;;;;;;5036318;28;20923;-67
2021/09/04 06:35:01;;;;;;;18.40;10.10;;;;;;;;;;5055638;28;20421;-67
2021/09/04 06:37:27;;;;;;;10.23;8.57;;;;;;;;;;5056238;28;20401;-67
2021/09/04 06:39:53;;;;;;;11.57;9.00;;;;;;;;;;5055378;28;20430;-66
2021/09/04 06:42:19;;;;;;;16.53;9.40;;;;;;;;;;5050777;28;20855;-67
2021/09/04 06:44:45;;;;;;;11.67;9.00;;;;;;;;;;5054890;28;20425;-67
2021/09/04 06:47:11;;;;;;;10.97;8.83;;;;;;;;;;5055959;28;20448;-67
2021/09/04 06:49:37;;;;;;;14.10;9.33;;;;;;;;;;5055324;28;20962;-67
2021/09/04 06:52:04;;;;;;;10.90;8.93;;;;;;;;;;5055590;28;20524;-67
2021/09/04 06:54:30;;;;;;;19.13;9.20;;;;;;;;;;5038080;28;20453;-67
2021/09/04 06:56:56;;;;;;;13.23;10.47;;;;;;;;;;5054772;28;20418;-67
2021/09/04 06:59:22;;;;;;;10.77;8.20;;;;;;;;;;5055723;28;20400;-67
2021/09/04 07:01:49;;;;;;;13.70;10.00;;;;;;;;;;5054322;28;20450;-67
2021/09/04 07:04:15;;;;;;;11.40;9.00;;;;;;;;;;5055750;28;20426;-67
2021/09/04 07:06:43;;;;;;;11.87;9.80;;;;;;;;;;5054689;28;20483;-67
2021/09/04 07:09:09;;;;;;;11.93;7.90;;;;;;;;;;5055584;28;20441;-67
2021/09/04 07:11:35;;;;;;;11.20;8.70;;;;;;;;;;5054466;28;20457;-67
2021/09/04 07:14:01;;;;;;;10.47;8.57;;;;;;;;;;5055120;28;20435;-67
2021/09/04 07:16:27;;;;;;;12.43;9.00;;;;;;;;;;5053068;28;20962;-67
2021/09/04 07:18:53;;;;;;;11.70;9.30;;;;;;;;;;5035349;28;20426;-67
2021/09/04 07:21:19;;;;;;;11.70;8.97;;;;;;;;;;5052193;28;20429;-67
2021/09/04 07:23:45;;;;;;;20.57;10.30;;;;;;;;;;5054931;28;20414;-67
2021/09/04 07:26:11;;;;;;;14.63;10.17;;;;;;;;;;5053088;28;20457;-66
2021/09/04 07:28:37;;;;;;;11.83;8.50;;;;;;;;;;5053170;28;20519;-65
2021/09/04 07:31:03;;;;;;;10.73;8.70;;;;;;;;;;5053225;28;20430;-65
2021/09/04 07:33:29;;;;;;;11.47;8.70;;;;;;;;;;5055562;28;20410;-66
2021/09/04 07:35:56;;;;;;;11.77;8.67;;;;;;;;;;5053808;28;20430;-65
2021/09/04 07:38:23;;;;;;;11.10;9.10;;;;;;;;;;5054474;28;20416;-65
2021/09/04 07:40:49;;;;;;;12.27;8.73;;;;;;;;;;5053222;28;20429;-64
2021/09/04 07:43:15;;;;;;;16.50;9.50;;;;;;;;;;5052905;28;20466;-66
2021/09/04 07:45:41;;;;;;;15.67;9.50;;;;;;;;;;5050180;28;20850;-65
2021/09/04 07:48:08;;;;;;;10.90;8.63;;;;;;;;;;5052570;28;20457;-68
2021/09/04 07:50:34;;;;;;;9.67;7.83;;;;;;;;;;5051835;28;20426;-66
2021/09/04 07:53:00;;;;;;;11.00;8.30;;;;;;;;;;5049052;28;20507;-68
2021/09/04 07:55:26;;;;;;;11.00;8.27;;;;;;;;;;5052659;28;20467;-65
2021/09/04 07:57:52;;;;;;;9.50;8.23;;;;;;;;;;5053001;28;20425;-68
2021/09/04 08:00:18;;;;;;;9.77;8.23;;;;;;;;;;5054242;28;20416;-67
2021/09/04 08:02:44;;;;;;;11.03;8.00;;;;;;;;;;5051680;28;20571;-67
2021/09/04 08:05:11;;;;;;;9.40;7.40;;;;;;;;;;5054170;28;20451;-67
2021/09/04 08:07:38;;;;;;;11.10;8.33;;;;;;;;;;5052155;28;20500;-67
2021/09/04 08:10:04;;;;;;;11.83;8.53;;;;;;;;;;5038627;28;20814;-66
2021/09/04 08:12:30;;;;;;;12.53;9.07;;;;;;;;;;5053677;28;20849;-67
2021/09/04 08:14:56;;;;;;;12.40;8.30;;;;;;;;;;5052934;28;20434;-64
2021/09/04 08:17:22;;;;;;;9.43;7.90;;;;;;;;;;5049757;28;20426;-65
2021/09/04 08:19:49;;;;;;;17.80;8.43;;;;;;;;;;5051534;28;20414;-67
2021/09/04 08:22:15;;;;;;;11.03;8.50;;;;;;;;;;5052159;28;20470;-63
2021/09/04 08:24:41;;;;;;;11.63;8.60;;;;;;;;;;5054080;28;20402;-65
2021/09/04 08:27:07;;;;;;;10.70;7.53;;;;;;;;;;5052902;28;20963;-63
2021/09/04 08:29:33;;;;;;;10.07;7.47;;;;;;;;;;5035612;28;20807;-64
2021/09/04 08:31:59;;;;;;;11.97;9.17;;;;;;;;;;5049227;28;20450;-63
2021/09/04 08:34:25;;;;;;;9.53;7.63;;;;;;;;;;5044856;28;20505;-64
2021/09/04 08:36:52;;;;;;;12.27;8.03;;;;;;;;;;5052800;28;20453;-63
2021/09/04 08:39:18;;;;;;;10.57;7.63;;;;;;;;;;5051459;28;20505;-68
2021/09/04 08:41:44;;;;;;;9.33;7.97;;;;;;;;;;5051406;28;20445;-66
2021/09/04 08:44:10;;;;;;;9.63;7.03;;;;;;;;;;5053917;28;20406;-65
2021/09/04 08:46:37;;;;;;;10.23;7.80;;;;;;;;;;5052992;28;20424;-66
2021/09/04 08:49:05;;;;;;;11.73;8.10;;;;;;;;;;5053786;28;20448;-66
2021/09/04 08:51:31;;;;;;;9.80;7.20;;;;;;;;;;5052389;28;20540;-63
2021/09/04 08:53:57;;;;;;;9.80;7.00;;;;;;;;;;5051548;28;20436;-65
2021/09/04 08:56:24;;;;;;;9.27;6.37;;;;;;;;;;5052369;28;20554;-65
2021/09/04 08:58:50;;;;;;;11.53;6.60;;;;;;;;;;5053897;28;20492;-65
2021/09/04 09:01:17;;;;;;;8.80;7.40;;;;;;;;;;5052656;28;20882;-67
2021/09/04 09:03:44;;;;;;;7.63;6.07;;;;;;;;;;5053633;28;20488;-66
2021/09/04 09:06:10;;;;;;;7.97;6.00;;;;;;;;;;5051247;28;20406;-68
2021/09/04 09:08:41;;;;;;;8.40;6.47;;;;;;;;;;5040310;28;20549;-67
2021/09/04 09:11:07;;;;;;;8.00;6.97;;;;;;;;;;5052693;28;20387;-67
2021/09/04 09:13:33;;;;;;;8.80;6.53;;;;;;;;;;5053439;28;20406;-65
2021/09/04 09:15:59;;;;;;;10.37;7.10;;;;;;;;;;5052681;28;20398;-67
2021/09/04 09:18:27;;;;;;;8.70;6.80;;;;;;;;;;5053640;28;20405;-65
2021/09/04 09:20:58;;;;;;;8.33;6.20;;;;;;;;;;5053233;28;20406;-66
2021/09/04 09:23:24;;;;;;;9.40;6.07;;;;;;;;;;5052838;28;20794;-67
2021/09/04 09:25:50;;;;;;;6.33;5.50;;;;;;;;;;5053471;28;20413;-66
2021/09/04 09:28:18;;;;;;;10.60;6.10;;;;;;;;;;5052565;28;20889;-68
2021/09/04 09:30:48;;;;;;;6.80;5.53;;;;;;;;;;5052690;28;20573;-67
2021/09/04 09:33:15;;;;;;;43.77;8.50;;;;;;;;;;5051092;28;20942;-64
2021/09/04 09:35:48;;;;;;;12.10;5.03;;;;;;;;;;5052549;28;20485;-68
2021/09/04 09:38:15;;;;;;;6.53;4.50;;;;;;;;;;5049089;28;20469;-64
2021/09/04 09:40:41;;;;;;;7.67;4.93;;;;;;;;;;5052843;28;20402;-64
2021/09/04 09:43:22;;;;;;;10.50;4.60;;;;;;;;;;5048307;28;20438;-65
2021/09/04 09:45:56;;;;;;;6.70;5.00;;;;;;;;;;5034488;28;20502;-65
2021/09/04 09:48:24;;;;;;;5.23;4.20;;;;;;;;;;5052868;28;20536;-66
2021/09/04 09:50:51;;;;;;;6.20;4.57;;;;;;;;;;5053545;28;20433;-66
2021/09/04 09:53:17;;;;;;;5.70;4.40;;;;;;;;;;5053410;28;20810;-65
2021/09/04 09:55:45;;;;;;;6.43;4.80;;;;;;;;;;5054146;28;20934;-65
2021/09/04 09:58:11;;;;;;;5.97;4.73;;;;;;;;;;5053250;28;20451;-65
2021/09/04 10:00:38;;;;;;;8.30;4.90;;;;;;;;;;5052948;28;20410;-66
2021/09/04 10:03:05;;;;;;;8.30;4.47;;;;;;;;;;5051566;28;20449;-64
2021/09/04 10:05:31;;;;;;;5.93;4.83;;;;;;;;;;5053839;28;20492;-64
2021/09/04 10:07:58;;;;;;;6.40;5.00;;;;;;;;;;5055608;28;20461;-64
2021/09/04 10:10:25;;;;;;;6.43;4.53;;;;;;;;;;5057682;28;20398;-64
2021/09/04 10:12:52;;;;;;;5.87;4.33;;;;;;;;;;5044938;28;20947;-64
2021/09/04 10:15:18;;;;;;;5.57;4.43;;;;;;;;;;5036367;28;20480;-66
2021/09/04 10:17:45;;;;;;;9.00;5.13;;;;;;;;;;5030705;28;20913;-64
2021/09/04 10:20:12;;;;;;;6.80;5.30;;;;;;;;;;5057480;28;20420;-65
2021/09/04 10:22:41;;;;;;;6.03;4.40;;;;;;;;;;5056382;28;20445;-64
2021/09/04 10:25:14;;;;;;;6.57;5.17;;;;;;;;;;5057378;28;20409;-65
2021/09/04 10:27:44;;;;;;;6.03;5.00;;;;;;;;;;5056265;28;20422;-65
2021/09/04 10:30:23;;;;;;;6.20;4.67;;;;;;;;;;5057508;28;20453;-65
2021/09/04 10:32:59;;;;;;;7.00;5.10;;;;;;;;;;5046438;28;20441;-65
2021/09/04 10:35:41;;;;;;;5.50;4.57;;;;;;;;;;5037497;28;20468;-65
2021/09/04 10:38:30;;;;;;;6.00;4.37;;;;;;;;;;5049373;28;20425;-65
2021/09/04 10:41:15;;;;;;;6.83;4.60;;;;;;;;;;5047088;28;20418;-64
2021/09/04 10:43:42;;;;;;;6.70;5.30;;;;;;;;;;5054981;28;20425;-65
2021/09/04 10:46:09;;;;;;;6.63;4.77;;;;;;;;;;5057340;28;20464;-64
2021/09/04 10:48:38;;;;;;;6.70;5.43;;;;;;;;;;5056025;28;20541;-65
2021/09/04 10:51:09;;;;;;;7.10;4.50;;;;;;;;;;5037978;28;20768;-65
2021/09/04 10:53:47;;;;;;;7.30;5.40;;;;;;;;;;5056159;28;20508;-64
2021/09/04 10:56:29;;;;;;;6.83;5.40;;;;;;;;;;5056685;28;20412;-64
2021/09/04 10:58:55;;;;;;;7.90;5.07;;;;;;;;;;5055737;28;20428;-63
2021/09/04 11:01:38;;;;;;;6.97;4.83;;;;;;;;;;5056607;28;20401;-63
2021/09/04 11:04:05;;;;;;;6.80;4.70;;;;;;;;;;5054848;28;20934;-63
2021/09/04 11:06:31;;;;;;;9.33;5.50;;;;;;;;;;5055720;28;20408;-64
2021/09/04 11:08:57;;;;;;;7.40;4.93;;;;;;;;;;5054841;28;20454;-64
2021/09/04 11:11:36;;;;;;;8.03;5.70;;;;;;;;;;5055765;28;20432;-64
2021/09/04 11:14:14;;;;;;;6.00;4.70;;;;;;;;;;5055044;28;20464;-65
2021/09/04 11:16:40;;;;;;;5.40;4.60;;;;;;;;;;5054850;28;20460;-65
2021/09/04 11:19:06;;;;;;;8.17;4.70;;;;;;;;;;5054590;28;20472;-64
2021/09/04 11:21:34;;;;;;;6.97;4.03;;;;;;;;;;5055777;28;20508;-64
2021/09/04 11:24:01;;;;;;;9.73;4.43;;;;;;;;;;5054310;28;20432;-64
2021/09/04 11:26:27;;;;;;;5.53;3.73;;;;;;;;;;5056180;28;20401;-65
2021/09/04 11:28:55;;;;;;;5.00;3.40;;;;;;;;;;5054937;28;20453;-64
2021/09/04 11:31:21;;;;;;;6.07;3.90;;;;;;;;;;5055731;28;20398;-64
2021/09/04 11:33:51;;;;;;;5.43;3.70;;;;;;;;;;5054644;28;20429;-63
2021/09/04 11:36:27;;;;;;;5.30;3.90;;;;;;;;;;5055583;28;20459;-63
2021/09/04 11:38:53;;;;;;;5.73;4.37;;;;;;;;;;5038821;28;20927;-64
2021/09/04 11:41:19;;;;;;;5.80;3.83;;;;;;;;;;5035316;28;20433;-64
2021/09/04 11:43:45;;;;;;;7.43;3.50;;;;;;;;;;5048549;28;20436;-64
2021/09/04 11:46:11;;;;;;;3.70;3.17;;;;;;;;;;5055034;28;20402;-64
2021/09/04 11:48:37;;;;;;;4.37;3.60;;;;;;;;;;5052877;28;20480;-64
2021/09/04 11:51:05;;;;;;;5.87;3.80;;;;;;;;;;5055328;28;20409;-64
2021/09/04 11:53:31;;;;;;;5.67;4.17;;;;;;;;;;5054284;28;20430;-63
2021/09/04 11:55:57;;;;;;;5.67;3.77;;;;;;;;;;5050312;28;20427;-63
2021/09/04 11:58:26;;;;;;;5.20;3.47;;;;;;;;;;5035582;28;20484;-63
2021/09/04 12:00:52;;;;;;;5.10;3.67;;;;;;;;;;5034845;28;20399;-64
2021/09/04 12:03:25;;;;;;;4.87;3.30;;;;;;;;;;5034822;28;20525;-63
2021/09/04 12:05:51;;;;;;;4.97;3.20;;;;;;;;;;5034731;28;20390;-64
2021/09/04 12:08:17;;;;;;;6.83;4.00;;;;;;;;;;5042158;28;20548;-63
2021/09/04 12:10:44;;;;;;;5.80;3.50;;;;;;;;;;5054466;28;20532;-64
2021/09/04 12:13:24;;;;;;;5.10;3.80;;;;;;;;;;5045337;28;20988;-63
2021/09/04 12:15:52;;;;;;;4.40;3.37;;;;;;;;;;5034686;28;20406;-64
2021/09/04 12:18:28;;;;;;;4.57;3.57;;;;;;;;;;5043333;28;20782;-64
2021/09/04 12:20:54;;;;;;;4.50;3.30;;;;;;;;;;5053600;28;20397;-63
2021/09/04 12:23:21;;;;;;;5.17;3.57;;;;;;;;;;5053495;28;20449;-63
2021/09/04 12:26:04;;;;;;;4.80;3.80;;;;;;;;;;5054346;28;20413;-64
2021/09/04 12:28:31;;;;;;;5.87;3.73;;;;;;;;;;5053239;28;20457;-63
2021/09/04 12:31:00;;;;;;;4.30;3.33;;;;;;;;;;5052213;28;20484;-63
2021/09/04 12:33:26;;;;;;;5.80;3.53;;;;;;;;;;5043979;28;20449;-64
2021/09/04 12:35:55;;;;;;;4.23;3.17;;;;;;;;;;5034491;28;20435;-64
2021/09/04 12:38:32;;;;;;;6.43;4.30;;;;;;;;;;5042523;28;20848;-63
2021/09/04 12:41:07;;;;;;;7.07;4.00;;;;;;;;;;5054039;28;20767;-63
2021/09/04 12:43:54;;;;;;;5.77;3.30;;;;;;;;;;5052840;28;20440;-64
2021/09/04 12:46:27;;;;;;;7.30;4.40;;;;;;;;;;5053786;28;20402;-64
2021/09/04 12:48:53;;;;;;;4.20;3.20;;;;;;;;;;5052703;28;20464;-63
2021/09/04 12:51:19;;;;;;;4.50;3.23;;;;;;;;;;5053690;28;20794;-64
2021/09/04 12:54:07;;;;;;;4.43;2.87;;;;;;;;;;5053122;28;20524;-64
2021/09/04 12:56:56;;;;;;;4.47;3.23;;;;;;;;;;5052350;28;20492;-64
2021/09/04 12:59:22;;;;;;;5.37;3.30;;;;;;;;;;5051758;28;20437;-64
2021/09/04 13:01:48;;;;;;;6.23;3.70;;;;;;;;;;5053765;28;20422;-64
2021/09/04 13:04:14;;;;;;;4.30;3.37;;;;;;;;;;5051633;28;20433;-63
2021/09/04 13:06:40;;;;;;;6.00;4.60;;;;;;;;;;5055312;28;20398;-63
2021/09/04 13:09:06;;;;;;;5.10;3.97;;;;;;;;;;5053998;28;20456;-62
2021/09/04 13:11:32;;;;;;;5.17;3.40;;;;;;;;;;5053221;28;20479;-63
2021/09/04 13:13:59;;;;;;;5.83;3.63;;;;;;;;;;5052263;28;20543;-64
2021/09/04 13:16:25;;;;;;;8.37;3.97;;;;;;;;;;5035468;28;20412;-62
2021/09/04 13:18:51;;;;;;;4.73;3.40;;;;;;;;;;5052169;28;20520;-63
2021/09/04 13:21:17;;;;;;;4.13;3.17;;;;;;;;;;5053487;28;20489;-64
2021/09/04 13:23:43;;;;;;;5.40;3.00;;;;;;;;;;5052511;28;20444;-64
2021/09/04 13:26:10;;;;;;;5.27;3.30;;;;;;;;;;5053616;28;20409;-63
2021/09/04 13:28:36;;;;;;;6.80;3.33;;;;;;;;;;5052763;28;20457;-63
2021/09/04 13:31:02;;;;;;;4.50;3.50;;;;;;;;;;5053500;28;20409;-64
2021/09/04 13:33:28;;;;;;;4.43;2.90;;;;;;;;;;5052296;28;20854;-63
2021/09/04 13:35:55;;;;;;;4.70;2.87;;;;;;;;;;5053001;28;20835;-63
2021/09/04 13:38:21;;;;;;;7.73;3.37;;;;;;;;;;5050055;28;20468;-63
2021/09/04 13:40:47;;;;;;;3.77;3.00;;;;;;;;;;5053947;28;20417;-63
2021/09/04 13:43:13;;;;;;;5.33;3.83;;;;;;;;;;5056124;28;20976;-64
2021/09/04 13:45:39;;;;;;;4.93;3.23;;;;;;;;;;5057064;28;20402;-64
2021/09/04 13:48:05;;;;;;;4.43;3.00;;;;;;;;;;5056234;28;20512;-63
2021/09/04 13:50:31;;;;;;;5.03;2.93;;;;;;;;;;5057364;28;20421;-64
2021/09/04 13:52:57;;;;;;;4.73;3.23;;;;;;;;;;5055905;28;20437;-63
2021/09/04 13:55:23;;;;;;;3.80;2.93;;;;;;;;;;5057259;28;20758;-63
2021/09/04 13:57:49;;;;;;;5.30;3.53;;;;;;;;;;5055977;28;20393;-65
2021/09/04 14:00:16;;;;;;;4.70;3.10;;;;;;;;;;5056984;28;20408;-62
2021/09/04 14:02:42;;;;;;;4.10;3.07;;;;;;;;;;5056353;28;20900;-62
2021/09/04 14:05:09;;;;;;;5.27;3.67;;;;;;;;;;5057005;28;20460;-63
2021/09/04 14:07:35;;;;;;;5.97;4.00;;;;;;;;;;5056791;28;20405;-63
2021/09/04 14:10:01;;;;;;;3.53;3.10;;;;;;;;;;5043000;28;20460;-63
2021/09/04 14:12:27;;;;;;;4.03;2.60;;;;;;;;;;5056634;28;20422;-64
2021/09/04 14:14:53;;;;;;;4.13;3.00;;;;;;;;;;5055887;28;20508;-63
2021/09/04 14:17:19;;;;;;;4.40;3.10;;;;;;;;;;5056485;28;20424;-62
2021/09/04 14:19:45;;;;;;;5.50;3.40;;;;;;;;;;5054110;28;20425;-64
2021/09/04 14:22:11;;;;;;;5.97;4.13;;;;;;;;;;5038033;28;20454;-63
2021/09/04 14:24:37;;;;;;;6.90;5.00;;;;;;;;;;5051020;28;20826;-63
2021/09/04 14:27:03;;;;;;;6.03;4.00;;;;;;;;;;5056409;28;20894;-63
2021/09/04 14:29:29;;;;;;;4.87;3.47;;;;;;;;;;5055224;28;20465;-63
2021/09/04 14:31:55;;;;;;;5.30;4.20;;;;;;;;;;5056210;28;20429;-63